Time;durP1;ratioP1;P1;durP2;ratioP2;P2;SDS_P1;SDS_P2;PMS_P1;PMS_P2;Temp;Humidity;BMP_temperature;BMP_pressure;BME280_temperature;BME280_humidity;BME280_pressure;Samples;Min_cycle;Max_cycle;Signal;HPM_P1;HPM_P2
2022/03/21 00:01:56;;;;;;;6.78;5.50;;;;;;;;;;5017954;28;20030;-63
2022/03/21 00:04:25;;;;;;;8.45;6.07;;;;;;;;;;5019644;28;20033;-63
2022/03/21 00:06:50;;;;;;;8.32;5.57;;;;;;;;;;5021552;28;20479;-63
2022/03/21 00:09:16;;;;;;;7.32;5.80;;;;;;;;;;5015129;28;20036;-63
2022/03/21 00:11:42;;;;;;;8.63;5.72;;;;;;;;;;5017261;28;20037;-63
2022/03/21 00:14:10;;;;;;;8.13;5.75;;;;;;;;;;5020203;28;20087;-63
2022/03/21 00:16:37;;;;;;;9.65;5.90;;;;;;;;;;5019039;28;20036;-63
2022/03/21 00:19:03;;;;;;;10.10;6.45;;;;;;;;;;5017253;28;20034;-63
2022/03/21 00:21:30;;;;;;;6.72;5.90;;;;;;;;;;5011707;28;20068;-63
2022/03/21 00:23:56;;;;;;;8.52;6.10;;;;;;;;;;5016261;28;20100;-63
2022/03/21 00:26:22;;;;;;;9.35;6.15;;;;;;;;;;5020550;28;20108;-63
2022/03/21 00:28:49;;;;;;;9.18;6.00;;;;;;;;;;5018954;28;20076;-63
2022/03/21 00:31:15;;;;;;;11.95;6.15;;;;;;;;;;5017404;28;20036;-63
2022/03/21 00:33:40;;;;;;;12.95;5.85;;;;;;;;;;5015606;28;20041;-63
2022/03/21 00:36:08;;;;;;;8.30;5.82;;;;;;;;;;5015844;28;20075;-63
2022/03/21 00:38:37;;;;;;;10.18;6.07;;;;;;;;;;5020023;28;20034;-63
2022/03/21 00:41:05;;;;;;;9.23;6.38;;;;;;;;;;5018801;28;20502;-63
2022/03/21 00:43:32;;;;;;;11.85;6.88;;;;;;;;;;5012098;28;20038;-63
2022/03/21 00:45:58;;;;;;;8.98;5.97;;;;;;;;;;5016628;28;20017;-62
2022/03/21 00:48:26;;;;;;;11.10;6.47;;;;;;;;;;5014803;28;20463;-62
2022/03/21 00:50:53;;;;;;;7.10;5.70;;;;;;;;;;5012925;28;20099;-63
2022/03/21 00:53:19;;;;;;;10.13;5.78;;;;;;;;;;5014526;28;20049;-63
2022/03/21 00:55:46;;;;;;;9.70;6.13;;;;;;;;;;5018494;28;20064;-61
2022/03/21 00:58:12;;;;;;;9.48;5.95;;;;;;;;;;5021176;28;20035;-63
2022/03/21 01:00:38;;;;;;;8.32;5.78;;;;;;;;;;5017738;28;20539;-63
2022/03/21 01:03:04;;;;;;;11.10;5.88;;;;;;;;;;5016852;28;20038;-63
2022/03/21 01:05:30;;;;;;;11.02;5.95;;;;;;;;;;5014116;28;20150;-63
2022/03/21 01:07:57;;;;;;;7.05;5.72;;;;;;;;;;5018117;28;20113;-63
2022/03/21 01:10:25;;;;;;;6.82;5.95;;;;;;;;;;5018117;28;20037;-60
2022/03/21 01:12:51;;;;;;;10.93;6.50;;;;;;;;;;5013320;28;20116;-63
2022/03/21 01:15:20;;;;;;;10.90;5.97;;;;;;;;;;5018439;28;20029;-63
2022/03/21 01:17:46;;;;;;;7.93;5.85;;;;;;;;;;5020964;28;20022;-63
2022/03/21 01:20:14;;;;;;;8.10;5.80;;;;;;;;;;5011444;28;20112;-63
2022/03/21 01:22:40;;;;;;;8.10;5.78;;;;;;;;;;5013521;28;20037;-63
2022/03/21 01:25:07;;;;;;;8.77;6.40;;;;;;;;;;5018346;28;20386;-63
2022/03/21 01:27:34;;;;;;;13.05;7.43;;;;;;;;;;5015005;28;20471;-63
2022/03/21 01:30:02;;;;;;;12.85;6.85;;;;;;;;;;5016774;28;20042;-63
2022/03/21 01:32:28;;;;;;;9.88;6.85;;;;;;;;;;5014721;28;20030;-63
2022/03/21 01:34:54;;;;;;;11.85;6.43;;;;;;;;;;5017989;28;20490;-63
2022/03/21 01:37:19;;;;;;;7.72;6.22;;;;;;;;;;5020065;28;20498;-63
2022/03/21 01:39:45;;;;;;;8.82;6.38;;;;;;;;;;5013499;28;20466;-63
2022/03/21 01:42:11;;;;;;;7.32;6.13;;;;;;;;;;5011968;28;20021;-63
2022/03/21 01:44:37;;;;;;;7.88;6.85;;;;;;;;;;5011456;28;20499;-63
2022/03/21 01:47:04;;;;;;;6.68;5.90;;;;;;;;;;5018854;28;20062;-61
2022/03/21 01:49:30;;;;;;;8.30;6.50;;;;;;;;;;5012161;28;20042;-63
2022/03/21 01:51:55;;;;;;;9.55;6.65;;;;;;;;;;5017600;28;20436;-63
2022/03/21 01:57:07;;;;;;;8.60;6.43;;;;;;;;;;5016297;28;20033;-63
2022/03/21 01:59:33;;;;;;;8.48;6.28;;;;;;;;;;5017274;28;20033;-63
2022/03/21 02:01:59;;;;;;;8.68;6.60;;;;;;;;;;5018276;28;20091;-63
2022/03/21 02:04:25;;;;;;;13.20;6.43;;;;;;;;;;5015646;28;20025;-63
2022/03/21 02:06:50;;;;;;;13.70;6.60;;;;;;;;;;5012560;28;20103;-63
2022/03/21 02:09:16;;;;;;;9.95;5.95;;;;;;;;;;5013482;28;20480;-63
2022/03/21 02:11:42;;;;;;;11.80;6.93;;;;;;;;;;5010708;28;20083;-63
2022/03/21 02:14:09;;;;;;;9.70;6.90;;;;;;;;;;5017799;28;20037;-63
2022/03/21 02:16:37;;;;;;;11.30;6.35;;;;;;;;;;5017573;28;20479;-63
2022/03/21 02:19:26;;;;;;;9.68;6.85;;;;;;;;;;5011810;28;20119;-63
2022/03/21 02:22:08;;;;;;;10.32;7.07;;;;;;;;;;5011121;28;20042;-63
2022/03/21 02:24:42;;;;;;;8.73;7.00;;;;;;;;;;5015240;28;20529;-62
2022/03/21 02:27:10;;;;;;;10.60;7.60;;;;;;;;;;5015323;28;20494;-62
2022/03/21 02:29:37;;;;;;;7.28;6.57;;;;;;;;;;5017708;28;20406;-63
2022/03/21 02:32:05;;;;;;;12.60;7.00;;;;;;;;;;5014737;28;20076;-63
2022/03/21 02:34:36;;;;;;;11.70;7.15;;;;;;;;;;5011199;28;20499;-63
2022/03/21 02:37:02;;;;;;;14.07;6.88;;;;;;;;;;5013174;28;20501;-63
2022/03/21 02:39:29;;;;;;;8.60;6.50;;;;;;;;;;5014863;28;20116;-64
2022/03/21 02:41:54;;;;;;;11.35;7.13;;;;;;;;;;5011538;28;20057;-63
2022/03/21 02:44:21;;;;;;;10.70;7.30;;;;;;;;;;5014090;28;20120;-63
2022/03/21 02:46:47;;;;;;;10.38;6.90;;;;;;;;;;5018764;28;20113;-63
2022/03/21 02:49:15;;;;;;;8.50;7.20;;;;;;;;;;5016382;28;20046;-63
2022/03/21 02:51:42;;;;;;;9.43;7.53;;;;;;;;;;5017220;28;20093;-63
2022/03/21 02:54:09;;;;;;;9.93;7.20;;;;;;;;;;5010255;28;20048;-64
2022/03/21 02:56:36;;;;;;;11.05;7.20;;;;;;;;;;5012642;28;20052;-63
2022/03/21 02:59:01;;;;;;;8.75;7.40;;;;;;;;;;5017051;28;20042;-63
2022/03/21 03:01:27;;;;;;;7.90;7.07;;;;;;;;;;5017278;28;20029;-63
2022/03/21 03:03:53;;;;;;;13.60;8.07;;;;;;;;;;5020505;28;20053;-63
2022/03/21 03:06:19;;;;;;;9.85;6.78;;;;;;;;;;5014733;28;20034;-63
2022/03/21 03:08:45;;;;;;;9.20;6.88;;;;;;;;;;5018670;28;20724;-63
2022/03/21 03:11:11;;;;;;;11.43;6.28;;;;;;;;;;5017699;28;20033;-63
2022/03/21 03:13:38;;;;;;;9.90;7.10;;;;;;;;;;5022735;28;20040;-63
2022/03/21 03:16:05;;;;;;;9.68;7.75;;;;;;;;;;5018525;28;20037;-63
2022/03/21 03:18:30;;;;;;;10.55;6.72;;;;;;;;;;5025718;28;20036;-63
2022/03/21 03:20:58;;;;;;;14.05;7.68;;;;;;;;;;5013037;28;20026;-63
2022/03/21 03:23:26;;;;;;;8.88;6.85;;;;;;;;;;5019904;28;20025;-63
2022/03/21 03:25:58;;;;;;;11.32;7.32;;;;;;;;;;5018351;28;20035;-64
2022/03/21 03:28:24;;;;;;;7.95;6.85;;;;;;;;;;5016056;28;20391;-63
2022/03/21 03:30:51;;;;;;;8.60;6.47;;;;;;;;;;5013274;28;20036;-63
2022/03/21 03:33:17;;;;;;;10.13;7.05;;;;;;;;;;5017199;28;20033;-63
2022/03/21 03:35:43;;;;;;;10.35;7.45;;;;;;;;;;5016441;28;20042;-63
2022/03/21 03:38:09;;;;;;;9.07;7.32;;;;;;;;;;5022896;28;20061;-63
2022/03/21 03:40:35;;;;;;;15.20;7.88;;;;;;;;;;5017637;28;20104;-63
2022/03/21 03:43:01;;;;;;;12.23;7.68;;;;;;;;;;5017463;28;20034;-63
2022/03/21 03:45:27;;;;;;;9.98;7.57;;;;;;;;;;5014961;28;20049;-63
2022/03/21 03:47:53;;;;;;;9.52;7.65;;;;;;;;;;5016321;28;20040;-64
2022/03/21 03:50:20;;;;;;;12.43;7.57;;;;;;;;;;5017346;28;20080;-64
2022/03/21 03:52:47;;;;;;;13.05;7.60;;;;;;;;;;5018784;28;20053;-63
2022/03/21 03:55:14;;;;;;;9.25;7.50;;;;;;;;;;5018528;28;20509;-63
2022/03/21 03:57:41;;;;;;;10.02;7.43;;;;;;;;;;5016458;28;20430;-63
2022/03/21 04:00:08;;;;;;;10.02;7.05;;;;;;;;;;5015166;28;20037;-63
2022/03/21 04:03:44;;;;;;;9.63;7.38;;;;;;;;;;5017817;28;20120;-63
2022/03/21 04:05:22;;;;;;;12.23;7.50;;;;;;;;;;5014775;28;20475;-63
2022/03/21 04:07:49;;;;;;;9.43;7.57;;;;;;;;;;5018976;28;20391;-63
2022/03/21 04:10:15;;;;;;;13.23;7.88;;;;;;;;;;5014984;28;20553;-63
2022/03/21 04:12:43;;;;;;;16.17;7.68;;;;;;;;;;5017714;28;20379;-64
2022/03/21 04:15:29;;;;;;;12.57;7.80;;;;;;;;;;5013036;28;20080;-64
2022/03/21 04:18:14;;;;;;;11.80;7.55;;;;;;;;;;5015621;28;20037;-63
2022/03/21 04:21:00;;;;;;;12.98;7.53;;;;;;;;;;5015940;28;20083;-63
2022/03/21 04:23:45;;;;;;;10.38;7.60;;;;;;;;;;5012113;28;20040;-63
2022/03/21 04:26:12;;;;;;;11.80;7.95;;;;;;;;;;5023684;28;20109;-63
2022/03/21 04:28:38;;;;;;;10.75;7.45;;;;;;;;;;5017452;28;20514;-63
2022/03/21 04:31:04;;;;;;;10.35;7.68;;;;;;;;;;5014700;28;20479;-62
2022/03/21 04:33:30;;;;;;;12.35;7.85;;;;;;;;;;5012601;28;20088;-64
2022/03/21 04:35:55;;;;;;;11.82;7.70;;;;;;;;;;5015961;28;20053;-64
2022/03/21 04:38:21;;;;;;;11.43;8.23;;;;;;;;;;5015850;28;20033;-63
2022/03/21 04:40:50;;;;;;;11.20;7.80;;;;;;;;;;5016339;28;20116;-63
2022/03/21 04:43:18;;;;;;;9.00;7.93;;;;;;;;;;5016845;28;20372;-63
2022/03/21 04:45:45;;;;;;;10.38;8.23;;;;;;;;;;5013819;28;20372;-59
2022/03/21 04:48:11;;;;;;;11.55;7.72;;;;;;;;;;5013586;28;20026;-63
2022/03/21 04:50:38;;;;;;;8.63;7.65;;;;;;;;;;5014344;28;20065;-63
2022/03/21 04:53:05;;;;;;;11.55;8.18;;;;;;;;;;5009606;28;20147;-62
2022/03/21 04:55:32;;;;;;;14.07;8.43;;;;;;;;;;5015928;28;20036;-63
2022/03/21 04:57:59;;;;;;;13.27;8.45;;;;;;;;;;5019919;28;20394;-63
2022/03/21 05:00:25;;;;;;;12.27;8.10;;;;;;;;;;5024132;28;20075;-62
2022/03/21 05:02:51;;;;;;;13.13;9.25;;;;;;;;;;5016725;28;20434;-63
2022/03/21 05:05:17;;;;;;;16.08;9.20;;;;;;;;;;5019565;28;20075;-63
2022/03/21 05:07:45;;;;;;;11.63;8.50;;;;;;;;;;5019289;28;20046;-63
2022/03/21 05:10:14;;;;;;;13.68;9.30;;;;;;;;;;5013028;28;20088;-63
2022/03/21 05:12:40;;;;;;;14.98;9.52;;;;;;;;;;5014760;28;20117;-63
2022/03/21 05:15:07;;;;;;;12.23;9.27;;;;;;;;;;5016152;28;20034;-62
2022/03/21 05:17:34;;;;;;;12.27;9.23;;;;;;;;;;5012488;28;20034;-63
2022/03/21 05:20:01;;;;;;;17.48;9.88;;;;;;;;;;5016776;28;20030;-63
2022/03/21 05:22:28;;;;;;;17.75;10.60;;;;;;;;;;5011000;28;20076;-63
2022/03/21 05:35:55;;;;;;;18.20;10.85;;;;;;;;;;5010647;28;20497;-63
2022/03/21 05:38:22;;;;;;;18.25;11.23;;;;;;;;;;5015554;28;20041;-63
2022/03/21 05:40:48;;;;;;;16.15;11.18;;;;;;;;;;5023491;28;20057;-63
2022/03/21 05:43:14;;;;;;;18.48;10.77;;;;;;;;;;5020871;28;20520;-63
2022/03/21 05:45:41;;;;;;;17.33;11.07;;;;;;;;;;5018663;28;20052;-63
2022/03/21 05:50:51;;;;;;;22.55;10.85;;;;;;;;;;5011137;28;20028;-63
2022/03/21 05:53:18;;;;;;;15.75;10.85;;;;;;;;;;5013823;28;20050;-63
2022/03/21 05:55:45;;;;;;;16.30;11.60;;;;;;;;;;5017584;28;20034;-63
2022/03/21 05:58:12;;;;;;;16.92;10.85;;;;;;;;;;5017044;28;20034;-63
2022/03/21 06:00:39;;;;;;;21.30;12.05;;;;;;;;;;5013925;28;20041;-63
2022/03/21 06:03:07;;;;;;;12.85;10.20;;;;;;;;;;5018543;28;20036;-63
2022/03/21 06:05:32;;;;;;;16.90;10.57;;;;;;;;;;5014049;28;20411;-63
2022/03/21 06:07:58;;;;;;;15.52;10.20;;;;;;;;;;5015502;28;20080;-63
2022/03/21 06:10:24;;;;;;;17.63;12.02;;;;;;;;;;5015913;28;20042;-62
2022/03/21 06:12:50;;;;;;;15.75;10.52;;;;;;;;;;5012096;28;20040;-63
2022/03/21 06:15:17;;;;;;;17.35;10.35;;;;;;;;;;5013606;28;20053;-63
2022/03/21 06:17:43;;;;;;;16.45;10.48;;;;;;;;;;5014364;28;20105;-63
2022/03/21 06:20:12;;;;;;;18.15;10.57;;;;;;;;;;5015287;28;20026;-63
2022/03/21 06:22:38;;;;;;;17.08;10.77;;;;;;;;;;5014755;28;20433;-63
2022/03/21 06:25:05;;;;;;;13.82;10.35;;;;;;;;;;5019894;28;20105;-62
2022/03/21 06:27:37;;;;;;;15.23;10.57;;;;;;;;;;5017554;28;20022;-63
2022/03/21 06:30:05;;;;;;;17.02;10.85;;;;;;;;;;5013772;28;20414;-63
2022/03/21 06:32:31;;;;;;;19.90;10.23;;;;;;;;;;5015251;28;20087;-64
2022/03/21 06:34:57;;;;;;;13.75;10.27;;;;;;;;;;5022777;28;20108;-63
2022/03/21 06:37:23;;;;;;;15.13;10.35;;;;;;;;;;5021078;28;20133;-63
2022/03/21 06:39:50;;;;;;;16.33;10.98;;;;;;;;;;5018916;28;20028;-63
2022/03/21 06:42:16;;;;;;;14.15;10.50;;;;;;;;;;5016936;28;20080;-63
2022/03/21 06:44:43;;;;;;;15.25;10.57;;;;;;;;;;5022417;28;20033;-63
2022/03/21 06:47:10;;;;;;;17.90;11.32;;;;;;;;;;5015055;28;20040;-63
2022/03/21 06:49:36;;;;;;;16.35;10.57;;;;;;;;;;5016633;28;20037;-63
2022/03/21 06:52:04;;;;;;;15.52;10.77;;;;;;;;;;5017688;28;20422;-64
2022/03/21 06:54:30;;;;;;;14.77;11.35;;;;;;;;;;5018074;28;20025;-64
2022/03/21 06:56:56;;;;;;;13.45;10.40;;;;;;;;;;5014260;28;20036;-63
2022/03/21 06:59:22;;;;;;;13.88;10.23;;;;;;;;;;5014584;28;20030;-64
2022/03/21 07:01:48;;;;;;;14.95;10.52;;;;;;;;;;5024690;28;20041;-63
2022/03/21 07:04:14;;;;;;;12.35;10.30;;;;;;;;;;5018984;28;20033;-63
2022/03/21 07:06:40;;;;;;;13.60;10.52;;;;;;;;;;5018068;28;20031;-63
2022/03/21 07:09:06;;;;;;;16.17;10.48;;;;;;;;;;5021643;28;20116;-63
2022/03/21 07:11:34;;;;;;;14.48;9.88;;;;;;;;;;5018067;28;20463;-64
2022/03/21 07:14:01;;;;;;;18.77;11.65;;;;;;;;;;5015329;28;20077;-63
2022/03/21 07:16:27;;;;;;;13.88;10.15;;;;;;;;;;5017442;28;20044;-63
2022/03/21 07:18:53;;;;;;;20.60;11.68;;;;;;;;;;5019302;28;20053;-63
2022/03/21 07:21:19;;;;;;;12.60;10.25;;;;;;;;;;5017848;28;20137;-63
2022/03/21 07:23:46;;;;;;;14.35;10.50;;;;;;;;;;5017348;28;20448;-62
2022/03/21 07:26:12;;;;;;;17.17;10.52;;;;;;;;;;5017345;28;20029;-63
2022/03/21 07:28:39;;;;;;;14.63;10.00;;;;;;;;;;5019835;28;20034;-63
2022/03/21 07:31:09;;;;;;;16.63;10.00;;;;;;;;;;5019166;28;20029;-62
2022/03/21 07:33:37;;;;;;;15.93;9.52;;;;;;;;;;5017956;28;20026;-63
2022/03/21 07:36:03;;;;;;;18.25;10.10;;;;;;;;;;5020218;28;20426;-63
2022/03/21 07:38:30;;;;;;;12.55;9.40;;;;;;;;;;5019810;28;20037;-63
2022/03/21 07:40:56;;;;;;;14.65;10.68;;;;;;;;;;5019932;28;20022;-63
2022/03/21 07:43:22;;;;;;;15.30;9.73;;;;;;;;;;5019072;28;20486;-63
2022/03/21 07:48:33;;;;;;;16.98;10.13;;;;;;;;;;5023620;28;20017;-63
2022/03/21 07:50:59;;;;;;;15.90;9.57;;;;;;;;;;5015644;28;20045;-63
2022/03/21 07:53:24;;;;;;;19.88;9.82;;;;;;;;;;5019016;28;20129;-63
2022/03/21 07:55:50;;;;;;;19.10;10.30;;;;;;;;;;5014679;28;20117;-62
2022/03/21 07:58:16;;;;;;;15.88;10.00;;;;;;;;;;5019145;28;20041;-62
2022/03/21 08:00:43;;;;;;;14.73;10.45;;;;;;;;;;5016842;28;20546;-62
2022/03/21 08:03:14;;;;;;;16.67;10.52;;;;;;;;;;5019038;28;20099;-63
2022/03/21 08:05:41;;;;;;;16.40;9.77;;;;;;;;;;5016556;28;20045;-63
2022/03/21 08:08:09;;;;;;;16.45;10.30;;;;;;;;;;5013410;28;20033;-62
2022/03/21 08:10:35;;;;;;;13.65;9.88;;;;;;;;;;5014574;28;20479;-62
2022/03/21 08:13:01;;;;;;;15.73;9.93;;;;;;;;;;5016892;28;20067;-62
2022/03/21 08:15:28;;;;;;;16.58;10.20;;;;;;;;;;5019339;28;20497;-63
2022/03/21 08:17:56;;;;;;;12.77;10.20;;;;;;;;;;5013331;28;20037;-63
2022/03/21 08:20:23;;;;;;;19.67;9.73;;;;;;;;;;5015177;28;20095;-62
2022/03/21 08:22:50;;;;;;;14.90;9.77;;;;;;;;;;5021540;28;20034;-63
2022/03/21 08:25:18;;;;;;;17.45;10.40;;;;;;;;;;5015755;28;20113;-63
2022/03/21 08:27:45;;;;;;;16.75;10.65;;;;;;;;;;5015899;28;20425;-59
2022/03/21 08:30:15;;;;;;;16.27;9.68;;;;;;;;;;5013882;28;20026;-62
2022/03/21 08:32:45;;;;;;;16.67;10.40;;;;;;;;;;5017407;28;20491;-62
2022/03/21 08:35:12;;;;;;;17.75;10.30;;;;;;;;;;5013652;28;20546;-63
2022/03/21 08:37:37;;;;;;;10.75;8.85;;;;;;;;;;5018151;28;20022;-63
2022/03/21 08:40:06;;;;;;;16.08;9.95;;;;;;;;;;5014895;28;20506;-63
2022/03/21 08:42:32;;;;;;;12.02;9.68;;;;;;;;;;5014730;28;20120;-63
2022/03/21 08:44:58;;;;;;;11.75;9.32;;;;;;;;;;5020596;28;20105;-63
2022/03/21 08:47:26;;;;;;;15.32;9.25;;;;;;;;;;5020741;28;20064;-63
2022/03/21 08:49:52;;;;;;;13.82;8.88;;;;;;;;;;5017106;28;20113;-63
2022/03/21 08:52:19;;;;;;;14.98;9.05;;;;;;;;;;5047384;28;20128;-63
2022/03/21 08:54:45;;;;;;;14.80;9.45;;;;;;;;;;5016125;28;20044;-63
2022/03/21 08:57:12;;;;;;;10.52;8.50;;;;;;;;;;5012881;28;20044;-63
2022/03/21 08:59:38;;;;;;;10.15;8.50;;;;;;;;;;5010744;28;20495;-63
2022/03/21 09:02:04;;;;;;;19.80;9.40;;;;;;;;;;5020298;28;20050;-63
2022/03/21 09:04:30;;;;;;;14.45;8.68;;;;;;;;;;5013099;28;20026;-63
2022/03/21 09:06:56;;;;;;;10.13;8.32;;;;;;;;;;5018771;28;20434;-63
2022/03/21 09:09:21;;;;;;;13.45;9.20;;;;;;;;;;5014335;28;20029;-63
2022/03/21 09:11:47;;;;;;;15.00;8.70;;;;;;;;;;5017026;28;20022;-62
2022/03/21 09:14:15;;;;;;;19.00;9.15;;;;;;;;;;5020185;28;20029;-63
2022/03/21 09:16:43;;;;;;;15.68;9.38;;;;;;;;;;5018495;28;20433;-63
2022/03/21 09:19:10;;;;;;;16.08;8.48;;;;;;;;;;5017411;28;20033;-63
2022/03/21 09:21:37;;;;;;;14.95;8.68;;;;;;;;;;5016757;28;20030;-63
2022/03/21 09:24:03;;;;;;;11.80;8.32;;;;;;;;;;5012947;28;20155;-63
2022/03/21 09:26:30;;;;;;;12.52;8.43;;;;;;;;;;5017641;28;20488;-63
2022/03/21 09:29:03;;;;;;;14.10;9.07;;;;;;;;;;5012931;28;20414;-63
2022/03/21 09:31:29;;;;;;;13.18;8.50;;;;;;;;;;5022821;28;20037;-63
2022/03/21 09:33:56;;;;;;;10.98;7.90;;;;;;;;;;5015231;28;20034;-63
2022/03/21 09:36:21;;;;;;;11.02;8.40;;;;;;;;;;5011485;28;20559;-63
2022/03/21 09:38:49;;;;;;;14.25;10.15;;;;;;;;;;5012253;28;20030;-63
2022/03/21 09:41:22;;;;;;;12.05;7.88;;;;;;;;;;5014933;28;20033;-63
2022/03/21 09:43:52;;;;;;;11.10;8.35;;;;;;;;;;5024132;28;20028;-63
2022/03/21 09:46:18;;;;;;;13.05;8.27;;;;;;;;;;5019825;28;20086;-63
2022/03/21 09:48:55;;;;;;;11.48;8.13;;;;;;;;;;5014866;28;20495;-63
2022/03/21 09:51:26;;;;;;;11.45;8.48;;;;;;;;;;5017497;28;20113;-63
2022/03/21 09:53:52;;;;;;;14.63;8.32;;;;;;;;;;5011111;28;20042;-64
2022/03/21 09:56:19;;;;;;;13.82;8.57;;;;;;;;;;5019044;28;20044;-63
2022/03/21 09:58:45;;;;;;;12.82;8.65;;;;;;;;;;5013391;28;20045;-63
2022/03/21 10:01:11;;;;;;;14.43;8.18;;;;;;;;;;5017475;28;20034;-64
2022/03/21 10:03:41;;;;;;;10.85;8.00;;;;;;;;;;5017212;28;20030;-64
2022/03/21 10:06:29;;;;;;;16.60;8.43;;;;;;;;;;5012140;28;20022;-63
2022/03/21 10:09:15;;;;;;;14.63;7.93;;;;;;;;;;5020790;28;20029;-63
2022/03/21 10:11:51;;;;;;;18.23;8.23;;;;;;;;;;5018480;28;20478;-63
2022/03/21 10:14:20;;;;;;;16.63;8.57;;;;;;;;;;5015427;28;20088;-63
2022/03/21 10:17:07;;;;;;;11.50;8.35;;;;;;;;;;5020639;28;20535;-63
2022/03/21 10:19:52;;;;;;;10.00;7.43;;;;;;;;;;5023779;28;20033;-63
2022/03/21 10:22:37;;;;;;;12.98;8.23;;;;;;;;;;5015125;28;20069;-63
2022/03/21 10:25:08;;;;;;;11.43;7.60;;;;;;;;;;5018361;28;20034;-63
2022/03/21 10:27:37;;;;;;;17.05;8.48;;;;;;;;;;5019494;28;20032;-63
2022/03/21 10:30:08;;;;;;;13.88;8.25;;;;;;;;;;5020180;28;20030;-63
2022/03/21 10:32:40;;;;;;;13.67;8.23;;;;;;;;;;5018960;28;20026;-62
2022/03/21 10:35:10;;;;;;;12.48;7.85;;;;;;;;;;5017276;28;20149;-62
2022/03/21 10:37:42;;;;;;;15.55;7.70;;;;;;;;;;5016488;28;20038;-63
2022/03/21 10:40:20;;;;;;;12.32;8.18;;;;;;;;;;5018607;28;20943;-63
2022/03/21 10:42:50;;;;;;;11.65;8.02;;;;;;;;;;5018439;28;20486;-63
2022/03/21 10:45:16;;;;;;;10.50;7.47;;;;;;;;;;5016367;28;20029;-63
2022/03/21 10:47:53;;;;;;;16.77;7.32;;;;;;;;;;5021011;28;20030;-63
2022/03/21 10:50:29;;;;;;;13.10;8.30;;;;;;;;;;5019547;28;20103;-63
2022/03/21 10:53:07;;;;;;;13.98;8.23;;;;;;;;;;5019863;28;20473;-64
2022/03/21 10:55:33;;;;;;;10.75;8.15;;;;;;;;;;5015419;28;20029;-64
2022/03/21 10:57:59;;;;;;;10.32;7.28;;;;;;;;;;5020775;28;20065;-64
2022/03/21 11:00:26;;;;;;;12.70;7.97;;;;;;;;;;5013751;28;20108;-61
2022/03/21 11:03:01;;;;;;;12.40;7.80;;;;;;;;;;5014409;28;20073;-63
2022/03/21 11:05:30;;;;;;;12.90;8.50;;;;;;;;;;5018684;28;20022;-63
2022/03/21 11:07:56;;;;;;;10.38;7.43;;;;;;;;;;5022109;28;20156;-63
2022/03/21 11:10:24;;;;;;;11.98;7.93;;;;;;;;;;5015234;28;20030;-63
2022/03/21 11:12:50;;;;;;;10.10;7.50;;;;;;;;;;5018759;28;20036;-63
2022/03/21 11:15:16;;;;;;;12.75;7.47;;;;;;;;;;5016139;28;20525;-63
2022/03/21 11:17:43;;;;;;;12.38;7.72;;;;;;;;;;5015413;28;20060;-63
2022/03/21 11:20:11;;;;;;;10.93;7.38;;;;;;;;;;5029812;28;20440;-63
2022/03/21 11:22:39;;;;;;;15.48;7.10;;;;;;;;;;5024300;28;20065;-63
2022/03/21 11:25:13;;;;;;;10.30;7.20;;;;;;;;;;5020677;28;20037;-61
2022/03/21 11:28:06;;;;;;;10.18;7.18;;;;;;;;;;5015528;28;20034;-63
2022/03/21 11:30:59;;;;;;;12.35;6.80;;;;;;;;;;5021517;28;20030;-63
2022/03/21 11:33:48;;;;;;;12.90;6.93;;;;;;;;;;5020225;28;20041;-63
2022/03/21 11:36:14;;;;;;;9.02;6.90;;;;;;;;;;5016930;28;20520;-63
2022/03/21 11:38:46;;;;;;;11.18;7.05;;;;;;;;;;5022422;28;20088;-63
2022/03/21 11:41:23;;;;;;;12.60;7.18;;;;;;;;;;5022696;28;20034;-63
2022/03/21 11:44:03;;;;;;;14.70;7.35;;;;;;;;;;5017589;28;20044;-62
2022/03/21 11:46:31;;;;;;;11.38;7.00;;;;;;;;;;5019066;28;20111;-63
2022/03/21 11:49:02;;;;;;;11.93;7.32;;;;;;;;;;5016626;28;20037;-63
2022/03/21 11:51:35;;;;;;;9.53;6.73;;;;;;;;;;5022292;28;20505;-62
2022/03/21 11:54:01;;;;;;;13.98;6.78;;;;;;;;;;5012920;28;20085;-63
2022/03/21 11:56:36;;;;;;;13.10;7.78;;;;;;;;;;5016241;28;20029;-62
2022/03/21 11:59:03;;;;;;;10.32;7.35;;;;;;;;;;5018317;28;20041;-63
2022/03/21 12:01:30;;;;;;;11.00;6.68;;;;;;;;;;5015082;28;20029;-63
2022/03/21 12:04:31;;;;;;;11.55;7.22;;;;;;;;;;5013315;28;20037;-63
2022/03/21 12:06:58;;;;;;;9.77;6.65;;;;;;;;;;5014257;28;20040;-63
2022/03/21 12:09:37;;;;;;;9.13;7.13;;;;;;;;;;5020022;28;20485;-63
2022/03/21 12:12:04;;;;;;;12.00;6.97;;;;;;;;;;5015371;28;20038;-63
2022/03/21 12:14:44;;;;;;;9.73;6.90;;;;;;;;;;5018185;28;20034;-63
2022/03/21 12:17:10;;;;;;;9.65;6.18;;;;;;;;;;5019712;28;20037;-62
2022/03/21 12:19:50;;;;;;;9.02;6.55;;;;;;;;;;5016419;28;20390;-63
2022/03/21 12:22:34;;;;;;;10.35;6.43;;;;;;;;;;5017114;28;20032;-63
2022/03/21 12:25:07;;;;;;;12.07;7.13;;;;;;;;;;5020568;28;20037;-63
2022/03/21 12:27:35;;;;;;;10.38;6.90;;;;;;;;;;5015784;28;20029;-63
2022/03/21 12:30:19;;;;;;;16.33;6.72;;;;;;;;;;5016303;28;20076;-63
2022/03/21 12:33:07;;;;;;;10.55;6.15;;;;;;;;;;5010053;28;20483;-63
2022/03/21 12:35:43;;;;;;;7.50;6.53;;;;;;;;;;5011621;28;20052;-63
2022/03/21 12:38:29;;;;;;;10.10;6.78;;;;;;;;;;5019052;28;20038;-63
2022/03/21 12:41:00;;;;;;;13.13;6.10;;;;;;;;;;5014551;28;20049;-63
2022/03/21 12:43:28;;;;;;;10.35;5.97;;;;;;;;;;5015320;28;20026;-63
2022/03/21 12:46:04;;;;;;;12.75;6.75;;;;;;;;;;5017651;28;20359;-62
2022/03/21 12:48:31;;;;;;;10.48;5.88;;;;;;;;;;5016406;28;20422;-63
2022/03/21 12:50:57;;;;;;;7.95;6.20;;;;;;;;;;5012823;28;20030;-63
2022/03/21 12:53:23;;;;;;;12.20;6.68;;;;;;;;;;5016210;28;20458;-63
2022/03/21 12:56:19;;;;;;;12.73;6.22;;;;;;;;;;5016876;28;20029;-63
2022/03/21 12:58:48;;;;;;;14.90;7.22;;;;;;;;;;5014258;28;20041;-63
2022/03/21 13:01:18;;;;;;;14.88;6.22;;;;;;;;;;5016044;28;20572;-62
2022/03/21 13:03:44;;;;;;;8.35;6.32;;;;;;;;;;5018300;28;20355;-63
2022/03/21 13:11:52;;;;;;;6.32;5.68;;;;;;;;;;5016826;28;20030;-63
2022/03/21 13:14:19;;;;;;;8.00;6.18;;;;;;;;;;5012341;28;20037;-63
2022/03/21 13:16:49;;;;;;;9.55;6.45;;;;;;;;;;5017905;28;20033;-62
2022/03/21 13:19:22;;;;;;;8.98;6.70;;;;;;;;;;5011714;28;20565;-62
2022/03/21 13:21:53;;;;;;;9.77;5.93;;;;;;;;;;5017442;28;20025;-62
2022/03/21 13:24:47;;;;;;;15.20;5.90;;;;;;;;;;5017743;28;20017;-63
2022/03/21 13:27:15;;;;;;;9.32;6.43;;;;;;;;;;5012893;28;20118;-63
2022/03/21 13:29:54;;;;;;;8.85;6.20;;;;;;;;;;5013000;28;20060;-63
2022/03/21 13:32:21;;;;;;;10.60;6.43;;;;;;;;;;5012512;28;20109;-63
2022/03/21 13:34:51;;;;;;;10.35;6.65;;;;;;;;;;5013046;28;20041;-63
2022/03/21 13:37:19;;;;;;;8.43;5.80;;;;;;;;;;5018149;28;20033;-64
2022/03/21 13:39:58;;;;;;;6.10;5.50;;;;;;;;;;5018081;28;20017;-61
2022/03/21 13:42:24;;;;;;;9.38;6.38;;;;;;;;;;5014723;28;20095;-63
2022/03/21 13:44:52;;;;;;;8.32;5.80;;;;;;;;;;5014813;28;20029;-63
2022/03/21 13:47:22;;;;;;;15.52;6.43;;;;;;;;;;5016656;28;20391;-63
2022/03/21 13:49:54;;;;;;;8.57;6.00;;;;;;;;;;5020488;28;20025;-62
2022/03/21 13:52:48;;;;;;;9.95;6.32;;;;;;;;;;5013251;28;20069;-63
2022/03/21 13:55:25;;;;;;;19.65;6.75;;;;;;;;;;5013067;28;20046;-63
2022/03/21 13:57:53;;;;;;;8.23;6.68;;;;;;;;;;5019440;28;20064;-62
2022/03/21 14:00:25;;;;;;;9.27;6.50;;;;;;;;;;5020101;28;20036;-63
2022/03/21 14:02:51;;;;;;;7.90;6.05;;;;;;;;;;5017494;28;20506;-63
2022/03/21 14:05:27;;;;;;;11.65;6.25;;;;;;;;;;5013038;28;20044;-63
2022/03/21 14:08:07;;;;;;;9.25;6.38;;;;;;;;;;5019200;28;20104;-63
2022/03/21 14:10:40;;;;;;;9.35;6.65;;;;;;;;;;5018031;28;20026;-62
2022/03/21 14:13:19;;;;;;;10.13;6.55;;;;;;;;;;5015738;28;20046;-62
2022/03/21 14:15:46;;;;;;;8.38;6.40;;;;;;;;;;5018129;28;20022;-62
2022/03/21 14:18:12;;;;;;;8.13;6.00;;;;;;;;;;5013105;28;20026;-63
2022/03/21 14:20:39;;;;;;;10.65;6.78;;;;;;;;;;5015968;28;20042;-63
2022/03/21 14:23:07;;;;;;;9.95;7.00;;;;;;;;;;5027777;28;20033;-62
2022/03/21 14:28:19;;;;;;;14.80;6.47;;;;;;;;;;5014199;28;20034;-64
2022/03/21 14:30:45;;;;;;;8.95;6.50;;;;;;;;;;5016470;28;20029;-63
2022/03/21 14:33:10;;;;;;;11.95;6.32;;;;;;;;;;5018025;28;20072;-63
2022/03/21 14:35:36;;;;;;;11.98;7.50;;;;;;;;;;5018372;28;20037;-63
2022/03/21 14:38:02;;;;;;;8.63;6.60;;;;;;;;;;5015907;28;20029;-63
2022/03/21 14:40:28;;;;;;;12.07;6.60;;;;;;;;;;5020520;28;20074;-63
2022/03/21 14:42:54;;;;;;;7.22;5.97;;;;;;;;;;5014534;28;20030;-63
2022/03/21 14:45:20;;;;;;;19.60;6.97;;;;;;;;;;5011737;28;20054;-63
2022/03/21 14:47:46;;;;;;;12.38;6.50;;;;;;;;;;5015218;28;20057;-63
2022/03/21 14:50:12;;;;;;;11.82;6.60;;;;;;;;;;5013190;28;20125;-63
2022/03/21 14:52:38;;;;;;;7.85;6.13;;;;;;;;;;5018651;28;20087;-64
2022/03/21 14:55:05;;;;;;;8.13;5.90;;;;;;;;;;5016529;28;20414;-63
2022/03/21 14:57:31;;;;;;;13.02;6.80;;;;;;;;;;5017154;28;20038;-63
2022/03/21 14:59:57;;;;;;;8.68;6.38;;;;;;;;;;5017346;28;20125;-63
2022/03/21 15:02:23;;;;;;;11.35;6.30;;;;;;;;;;5016485;28;20104;-63
2022/03/21 15:04:49;;;;;;;9.07;6.90;;;;;;;;;;5020565;28;20029;-63
2022/03/21 15:07:14;;;;;;;10.20;6.78;;;;;;;;;;5018253;28;20540;-63
2022/03/21 15:12:25;;;;;;;7.70;5.97;;;;;;;;;;5020375;28;20091;-63